createdAt,value
2022-12-28T00:01:40.272Z,68.99
2022-12-28T00:04:11.419Z,68.95
2022-12-28T00:06:42.183Z,68.90
2022-12-28T00:09:14.498Z,69.22
2022-12-28T00:11:45.263Z,68.96
2022-12-28T00:14:15.957Z,68.75
2022-12-28T00:16:46.843Z,68.95
2022-12-28T00:19:18.793Z,68.79
2022-12-28T00:21:49.658Z,68.81
2022-12-28T00:24:23.296Z,68.86
2022-12-28T00:26:56.919Z,69.05
2022-12-28T00:29:27.729Z,69.05
2022-12-28T00:31:58.819Z,68.94
2022-12-28T00:34:29.497Z,68.97
2022-12-28T00:37:09.999Z,69.19
2022-12-28T00:39:43.911Z,68.94
2022-12-28T00:42:18.650Z,68.78
2022-12-28T00:44:49.353Z,68.76
2022-12-28T00:47:20.397Z,68.74
2022-12-28T00:49:51.070Z,68.62
2022-12-28T00:52:21.755Z,68.96
2022-12-28T00:54:53.008Z,69.23
2022-12-28T00:57:23.781Z,68.95
2022-12-28T00:59:54.990Z,69.10
2022-12-28T01:02:25.788Z,69.15
2022-12-28T01:04:56.465Z,69.13
2022-12-28T01:07:27.270Z,69.02
2022-12-28T01:09:57.957Z,68.88
2022-12-28T01:12:33.168Z,68.64
2022-12-28T01:15:12.017Z,68.98
2022-12-28T01:17:43.018Z,68.79
2022-12-28T01:20:14.053Z,68.76
2022-12-28T01:22:47.424Z,68.73
2022-12-28T01:25:18.448Z,68.91
2022-12-28T01:27:49.304Z,68.77
2022-12-28T01:30:20.516Z,68.72
2022-12-28T01:32:51.401Z,68.86
2022-12-28T01:35:22.134Z,69.34
2022-12-28T01:37:52.988Z,68.86
2022-12-28T01:40:23.759Z,68.95
2022-12-28T01:42:54.610Z,69.06
2022-12-28T01:45:25.813Z,69.10
2022-12-28T01:47:58.603Z,68.96
2022-12-28T01:50:30.944Z,69.35
2022-12-28T01:53:06.217Z,68.98
2022-12-28T01:55:40.904Z,69.04
2022-12-28T01:58:16.056Z,68.80
2022-12-28T02:00:46.788Z,68.97
2022-12-28T02:03:21.417Z,69.20
2022-12-28T02:05:55.250Z,69.08
2022-12-28T02:08:31.001Z,68.99
2022-12-28T02:11:04.403Z,68.95
2022-12-28T02:13:35.731Z,69.02
2022-12-28T02:16:08.820Z,69.05
2022-12-28T02:18:40.540Z,68.74
2022-12-28T02:21:31.784Z,68.82
2022-12-28T02:24:34.484Z,68.86
2022-12-28T02:27:10.426Z,68.92
2022-12-28T02:30:03.140Z,68.70
2022-12-28T02:32:45.308Z,68.99
2022-12-28T02:35:24.561Z,69.03
2022-12-28T02:38:01.593Z,68.85
2022-12-28T02:40:39.136Z,68.74
2022-12-28T02:43:10.275Z,68.86
2022-12-28T02:46:02.920Z,69.00
2022-12-28T02:49:01.598Z,69.14
2022-12-28T02:51:56.539Z,69.14
2022-12-28T02:55:16.611Z,69.05
2022-12-28T02:58:05.875Z,69.12
2022-12-28T03:00:49.728Z,68.62
2022-12-28T03:03:29.798Z,68.94
2022-12-28T03:06:30.562Z,69.00
2022-12-28T03:09:14.629Z,68.86
2022-12-28T03:11:52.256Z,69.34
2022-12-28T03:14:30.136Z,69.16
2022-12-28T03:17:21.756Z,69.17
2022-12-28T03:20:23.468Z,69.46
2022-12-28T03:23:13.772Z,69.51
2022-12-28T03:26:04.908Z,69.75
2022-12-28T03:29:02.383Z,69.55
2022-12-28T03:31:36.238Z,69.68
2022-12-28T03:34:10.594Z,69.92
2022-12-28T03:36:49.224Z,70.13
2022-12-28T03:39:31.725Z,70.08
2022-12-28T03:42:27.418Z,70.49
2022-12-28T03:45:03.784Z,70.25
2022-12-28T03:47:38.841Z,70.29
2022-12-28T03:50:10.448Z,69.96
2022-12-28T03:52:41.504Z,70.20
2022-12-28T03:55:14.930Z,70.24
2022-12-28T03:57:45.786Z,69.94
2022-12-28T04:00:20.933Z,69.68
2022-12-28T04:02:54.307Z,70.16
2022-12-28T04:05:25.292Z,70.01
2022-12-28T04:07:56.369Z,70.30
2022-12-28T04:10:27.417Z,70.22
2022-12-28T04:12:58.785Z,70.48
2022-12-28T04:15:35.208Z,70.41
2022-12-28T04:18:06.161Z,70.06
2022-12-28T04:20:36.981Z,70.25
2022-12-28T04:23:07.733Z,70.15
2022-12-28T04:25:38.454Z,70.08
2022-12-28T04:28:09.189Z,70.33
2022-12-28T04:31:04.435Z,69.99
2022-12-28T04:33:38.499Z,70.13
2022-12-28T04:36:13.485Z,70.25
2022-12-28T04:38:44.390Z,70.49
2022-12-28T04:41:15.592Z,70.72
2022-12-28T04:43:46.407Z,70.53
2022-12-28T04:46:18.751Z,70.36
2022-12-28T04:48:49.463Z,70.35
2022-12-28T04:51:22.278Z,70.27
2022-12-28T04:53:53.709Z,70.62
2022-12-28T04:56:25.932Z,70.46
2022-12-28T04:58:58.436Z,70.37
2022-12-28T05:01:29.603Z,70.57
2022-12-28T05:04:00.881Z,70.62
2022-12-28T05:06:31.599Z,70.67
2022-12-28T05:09:02.371Z,70.44
2022-12-28T05:11:33.618Z,70.57
2022-12-28T05:14:04.310Z,70.81
2022-12-28T05:16:35.063Z,70.54
2022-12-28T05:19:06.012Z,70.66
2022-12-28T05:21:37.523Z,70.44
2022-12-28T05:24:09.199Z,70.61
2022-12-28T05:26:39.895Z,70.78
2022-12-28T05:29:10.783Z,71.05
2022-12-28T05:31:41.448Z,71.00
2022-12-28T05:34:12.289Z,71.01
2022-12-28T05:36:44.502Z,70.99
2022-12-28T05:39:15.168Z,70.96
2022-12-28T05:41:45.849Z,71.19
2022-12-28T05:44:16.529Z,71.16
2022-12-28T05:46:47.280Z,71.15
2022-12-28T05:49:17.974Z,71.44
2022-12-28T05:51:49.741Z,71.33
2022-12-28T05:54:20.571Z,71.38
2022-12-28T05:56:53.925Z,71.23
2022-12-28T05:59:24.681Z,71.29
2022-12-28T06:01:55.465Z,71.24
2022-12-28T06:04:26.345Z,71.46
2022-12-28T06:06:57.326Z,71.51
2022-12-28T06:09:28.666Z,71.24
2022-12-28T06:11:59.392Z,71.40
2022-12-28T06:14:30.303Z,71.45
2022-12-28T06:17:01.002Z,71.47
2022-12-28T06:19:31.688Z,71.52
2022-12-28T06:22:02.601Z,71.57
2022-12-28T06:24:33.293Z,71.71
2022-12-28T06:27:04.149Z,71.59
2022-12-28T06:29:34.919Z,71.50
2022-12-28T06:32:06.134Z,71.73
2022-12-28T06:34:36.665Z,71.65
2022-12-28T06:37:07.416Z,71.67
2022-12-28T06:39:38.100Z,71.68
2022-12-28T06:42:08.892Z,71.58
2022-12-28T06:44:44.490Z,71.59
2022-12-28T06:47:16.071Z,71.80
2022-12-28T06:49:46.746Z,71.89
2022-12-28T06:52:17.531Z,72.01
2022-12-28T06:54:48.301Z,72.05
2022-12-28T06:57:19.020Z,71.87
2022-12-28T06:59:49.724Z,71.92
2022-12-28T07:02:20.928Z,71.89
2022-12-28T07:04:52.122Z,72.02
2022-12-28T07:07:22.824Z,71.94
2022-12-28T07:09:53.706Z,72.00
2022-12-28T07:12:24.452Z,72.22
2022-12-28T07:14:55.116Z,71.99
2022-12-28T07:17:25.866Z,72.19
2022-12-28T07:19:56.821Z,72.05
2022-12-28T07:22:27.530Z,71.99
2022-12-28T07:24:58.329Z,72.04
2022-12-28T07:27:29.279Z,72.60
2022-12-28T07:29:59.989Z,73.19
2022-12-28T07:32:31.027Z,72.54
2022-12-28T07:35:01.779Z,72.37
2022-12-28T07:37:32.577Z,71.87
2022-12-28T07:40:03.391Z,71.81
2022-12-28T07:42:34.153Z,72.18
2022-12-28T07:45:05.300Z,72.19
2022-12-28T07:47:36.817Z,71.27
2022-12-28T07:50:08.614Z,70.33
2022-12-28T07:52:39.785Z,69.80
2022-12-28T07:55:11.353Z,69.95
2022-12-28T07:57:42.183Z,69.75
2022-12-28T08:00:15.034Z,69.03
2022-12-28T08:02:45.749Z,68.44
2022-12-28T08:05:16.535Z,67.77
2022-12-28T08:07:47.320Z,67.76
2022-12-28T08:10:18.254Z,68.00
2022-12-28T08:12:48.982Z,68.22
2022-12-28T08:15:19.703Z,67.99
2022-12-28T08:17:50.388Z,67.84
2022-12-28T08:20:21.183Z,67.07
2022-12-28T08:22:52.083Z,66.60
2022-12-28T08:25:22.917Z,66.71
2022-12-28T08:27:53.651Z,67.00
2022-12-28T08:30:24.400Z,66.75
2022-12-28T08:32:55.056Z,66.52
2022-12-28T08:35:25.769Z,66.27
2022-12-28T08:37:58.608Z,65.93
2022-12-28T08:40:30.082Z,65.26
2022-12-28T08:43:01.726Z,64.83
2022-12-28T08:45:32.552Z,64.40
2022-12-28T08:48:03.229Z,63.82
2022-12-28T08:50:35.636Z,63.59
2022-12-28T08:53:06.366Z,63.59
2022-12-28T08:55:37.091Z,63.66
2022-12-28T08:58:07.788Z,63.97
2022-12-28T09:00:38.917Z,64.48
2022-12-28T09:03:09.796Z,64.95
2022-12-28T09:05:41.199Z,65.46
2022-12-28T09:08:11.910Z,65.19
2022-12-28T09:10:42.615Z,64.76
2022-12-28T09:13:13.334Z,64.67
2022-12-28T09:15:44.063Z,64.51
2022-12-28T09:18:14.882Z,64.17
2022-12-28T09:20:47.980Z,63.81
2022-12-28T09:23:20.257Z,63.72
2022-12-28T09:25:51.056Z,63.57
2022-12-28T09:28:21.780Z,63.54
2022-12-28T09:30:52.879Z,63.61
2022-12-28T09:34:13.863Z,63.66
2022-12-28T09:36:34.320Z,63.81
2022-12-28T09:39:07.676Z,63.71
2022-12-28T09:41:44.724Z,64.07
2022-12-28T09:44:36.047Z,64.43
2022-12-28T09:47:17.622Z,64.41
2022-12-28T09:49:58.716Z,64.57
2022-12-28T09:52:33.533Z,64.59
2022-12-28T09:55:12.144Z,64.63
2022-12-28T09:57:46.263Z,64.63
2022-12-28T10:00:22.256Z,64.72
2022-12-28T10:02:56.902Z,64.56
2022-12-28T10:05:28.114Z,64.15
2022-12-28T10:08:00.689Z,64.15
2022-12-28T10:10:31.578Z,64.30
2022-12-28T10:13:45.537Z,64.16
2022-12-28T10:16:08.636Z,64.26
2022-12-28T10:18:39.879Z,64.21
2022-12-28T10:21:11.635Z,64.11
2022-12-28T10:24:04.501Z,64.10
2022-12-28T10:26:36.480Z,63.89
2022-12-28T10:29:12.419Z,63.59
2022-12-28T10:31:43.585Z,63.72
2022-12-28T10:34:20.983Z,63.45
2022-12-28T10:36:53.480Z,63.32
2022-12-28T10:39:27.087Z,63.06
2022-12-28T10:41:59.416Z,63.07
2022-12-28T10:44:41.283Z,62.81
2022-12-28T10:47:30.414Z,62.73
2022-12-28T10:52:59.733Z,62.56
2022-12-28T10:55:33.662Z,62.40
2022-12-28T10:58:30.791Z,62.53
2022-12-28T11:01:05.311Z,62.44
2022-12-28T11:03:39.711Z,62.43
2022-12-28T11:06:26.279Z,62.24
2022-12-28T11:09:14.571Z,62.11
2022-12-28T11:11:47.572Z,62.39
2022-12-28T11:14:30.321Z,62.74
2022-12-28T11:17:08.537Z,62.91
2022-12-28T11:19:39.277Z,62.90
2022-12-28T11:22:12.748Z,62.89
2022-12-28T11:24:43.723Z,62.60
2022-12-28T11:27:18.056Z,62.54
2022-12-28T11:29:51.836Z,62.83
2022-12-28T11:32:26.582Z,62.95
2022-12-28T11:34:59.033Z,62.92
2022-12-28T11:37:29.891Z,63.04
2022-12-28T11:40:00.691Z,63.26
2022-12-28T11:42:56.969Z,63.20
2022-12-28T11:45:55.666Z,63.45
2022-12-28T11:48:49.573Z,63.48
2022-12-28T11:51:22.445Z,63.25
2022-12-28T11:53:57.987Z,63.48
2022-12-28T11:56:50.501Z,63.53
2022-12-28T11:59:26.928Z,63.56
2022-12-28T12:02:00.149Z,63.43
2022-12-28T12:04:39.775Z,63.29
2022-12-28T12:07:30.569Z,63.13
2022-12-28T12:10:35.499Z,63.08
2022-12-28T12:13:42.704Z,63.13
2022-12-28T12:16:25.634Z,63.26
2022-12-28T12:19:00.175Z,63.20
2022-12-28T12:21:40.910Z,63.29
2022-12-28T12:24:26.973Z,63.27
2022-12-28T12:27:08.641Z,63.29
2022-12-28T12:29:45.578Z,63.30
2022-12-28T12:32:24.010Z,63.23
2022-12-28T12:35:00.420Z,63.37
2022-12-28T12:37:44.451Z,63.38
2022-12-28T12:40:51.474Z,63.47
2022-12-28T12:43:45.591Z,63.52
2022-12-28T12:46:38.695Z,63.41
2022-12-28T12:49:34.038Z,63.65
2022-12-28T12:52:17.892Z,63.53
2022-12-28T12:55:03.739Z,63.52
2022-12-28T12:57:41.894Z,63.60
2022-12-28T13:00:18.992Z,63.49
2022-12-28T13:03:17.604Z,63.56
2022-12-28T13:05:53.773Z,63.51
2022-12-28T13:08:27.798Z,63.40
2022-12-28T13:10:58.669Z,63.35
2022-12-28T13:13:34.209Z,63.78
2022-12-28T13:16:10.208Z,63.80
2022-12-28T13:18:45.535Z,63.82
2022-12-28T13:21:22.256Z,63.93
2022-12-28T13:23:53.850Z,64.10
2022-12-28T13:26:30.411Z,64.03
2022-12-28T13:29:03.077Z,63.61
2022-12-28T13:31:39.884Z,63.65
2022-12-28T13:34:20.512Z,63.65
2022-12-28T13:36:54.501Z,63.79
2022-12-28T13:39:27.126Z,63.78
2022-12-28T13:42:00.066Z,63.84
2022-12-28T13:44:43.335Z,63.64
2022-12-28T13:47:20.609Z,64.02
2022-12-28T13:49:59.006Z,64.12
2022-12-28T13:52:34.572Z,63.89
2022-12-28T13:55:11.276Z,64.14
2022-12-28T13:57:47.577Z,63.87
2022-12-28T14:00:22.157Z,63.89
2022-12-28T14:02:58.133Z,63.84
2022-12-28T14:05:31.297Z,63.96
2022-12-28T14:08:03.231Z,63.93
2022-12-28T14:10:34.494Z,63.86
2022-12-28T14:13:07.888Z,63.93
2022-12-28T14:15:42.604Z,63.69
2022-12-28T14:18:17.023Z,64.05
2022-12-28T14:20:52.126Z,63.78
2022-12-28T14:23:25.405Z,63.78
2022-12-28T14:25:58.984Z,64.05
2022-12-28T14:28:35.674Z,63.93
2022-12-28T14:31:13.131Z,64.17
2022-12-28T14:33:58.795Z,63.90
2022-12-28T14:36:33.206Z,64.08
2022-12-28T14:39:06.757Z,63.99
2022-12-28T14:44:54.432Z,64.13
2022-12-28T14:47:45.236Z,64.21
2022-12-28T14:50:24.548Z,64.31
2022-12-28T14:53:08.787Z,64.15
2022-12-28T14:55:55.922Z,64.58
2022-12-28T14:58:29.864Z,64.34
2022-12-28T15:01:02.703Z,64.20
2022-12-28T15:03:48.967Z,64.23
2022-12-28T15:06:21.400Z,64.23
2022-12-28T15:08:54.121Z,64.00
2022-12-28T15:11:26.444Z,64.09
2022-12-28T15:13:58.141Z,64.25
2022-12-28T15:16:29.075Z,64.15
2022-12-28T15:18:59.973Z,64.28
2022-12-28T15:21:31.301Z,64.08
2022-12-28T15:24:02.844Z,64.26
2022-12-28T15:26:33.525Z,64.11
2022-12-28T15:29:08.347Z,64.38
2022-12-28T15:31:39.084Z,64.13
2022-12-28T15:34:09.874Z,64.15
2022-12-28T15:36:42.658Z,64.15
2022-12-28T15:39:15.442Z,64.16
2022-12-28T15:41:49.182Z,64.28
2022-12-28T15:44:21.498Z,64.31
2022-12-28T15:46:52.477Z,64.30
2022-12-28T15:49:24.261Z,64.39
2022-12-28T15:51:55.330Z,64.40
2022-12-28T15:54:26.077Z,64.60
2022-12-28T15:56:58.033Z,64.54
2022-12-28T15:59:28.940Z,64.60
2022-12-28T16:01:59.895Z,64.41
2022-12-28T16:04:30.895Z,64.49
2022-12-28T16:07:01.638Z,64.28
2022-12-28T16:09:32.383Z,64.48
2022-12-28T16:12:03.614Z,64.37
2022-12-28T16:14:34.555Z,64.52
2022-12-28T16:17:06.008Z,64.51
2022-12-28T16:19:36.741Z,64.50
2022-12-28T16:22:07.503Z,64.28
2022-12-28T16:24:38.357Z,64.35
2022-12-28T16:27:09.740Z,64.56
2022-12-28T16:29:55.327Z,64.66
2022-12-28T16:32:29.209Z,64.57
2022-12-28T16:35:00.125Z,64.56
2022-12-28T16:37:30.843Z,64.45
2022-12-28T16:40:01.620Z,64.70
2022-12-28T16:42:32.590Z,64.52
2022-12-28T16:45:03.461Z,64.78
2022-12-28T16:47:36.993Z,64.64
2022-12-28T16:50:11.949Z,64.63
2022-12-28T16:52:43.263Z,64.70
2022-12-28T16:55:14.097Z,64.66
2022-12-28T16:57:44.883Z,64.56
2022-12-28T17:00:16.610Z,64.35
2022-12-28T17:02:47.853Z,64.57
2022-12-28T17:05:18.960Z,64.48
2022-12-28T17:07:49.987Z,64.50
2022-12-28T17:10:20.850Z,64.34
2022-12-28T17:12:51.474Z,64.13
2022-12-28T17:15:22.304Z,64.34
2022-12-28T17:17:53.285Z,64.37
2022-12-28T17:20:25.581Z,64.36
2022-12-28T17:22:56.474Z,64.31
2022-12-28T17:25:27.922Z,64.33
2022-12-28T17:27:58.938Z,64.42
2022-12-28T17:30:31.191Z,64.29
2022-12-28T17:33:02.032Z,64.30
2022-12-28T17:35:33.531Z,64.20
2022-12-28T17:38:04.601Z,64.19
2022-12-28T17:40:35.858Z,64.16
2022-12-28T17:43:06.670Z,64.30
2022-12-28T17:45:38.711Z,64.06
2022-12-28T17:48:09.830Z,64.12
2022-12-28T17:50:47.128Z,64.16
2022-12-28T17:53:18.172Z,64.06
2022-12-28T17:55:48.855Z,64.09
2022-12-28T17:58:46.127Z,64.04
2022-12-28T18:01:19.867Z,64.11
2022-12-28T18:03:51.014Z,64.05
2022-12-28T18:06:22.226Z,64.03
2022-12-28T18:08:53.195Z,64.02
2022-12-28T18:11:24.342Z,64.02
2022-12-28T18:13:59.060Z,63.76
2022-12-28T18:16:46.143Z,63.93
2022-12-28T18:19:21.301Z,63.90
2022-12-28T18:21:52.113Z,63.87
2022-12-28T18:24:24.760Z,64.01
2022-12-28T18:26:55.448Z,63.78
2022-12-28T18:29:26.224Z,63.85
2022-12-28T18:31:57.066Z,63.99
2022-12-28T18:34:28.171Z,63.86
2022-12-28T18:36:59.096Z,63.61
2022-12-28T18:39:31.093Z,63.57
2022-12-28T18:42:02.366Z,63.58
2022-12-28T18:44:33.290Z,63.63
2022-12-28T18:47:04.179Z,63.68
2022-12-28T18:49:35.085Z,63.77
2022-12-28T18:52:31.518Z,63.68
2022-12-28T18:55:02.481Z,63.65
2022-12-28T18:57:44.709Z,63.83
2022-12-28T19:00:17.259Z,63.64
2022-12-28T19:02:53.321Z,63.57
2022-12-28T19:05:24.479Z,63.63
2022-12-28T19:07:55.271Z,63.67
2022-12-28T19:10:26.324Z,63.74
2022-12-28T19:12:57.869Z,63.72
2022-12-28T19:15:30.566Z,63.81
2022-12-28T19:18:02.549Z,63.75
2022-12-28T19:20:33.865Z,63.70
2022-12-28T19:23:05.004Z,63.75
2022-12-28T19:25:35.769Z,63.73
2022-12-28T19:28:07.253Z,63.65
2022-12-28T19:30:38.502Z,63.73
2022-12-28T19:33:09.630Z,63.73
2022-12-28T19:35:40.684Z,63.77
2022-12-28T19:38:11.532Z,63.73
2022-12-28T19:40:42.343Z,63.87
2022-12-28T19:43:13.615Z,63.61
2022-12-28T19:45:44.775Z,63.74
2022-12-28T19:48:15.938Z,63.84
2022-12-28T19:50:47.064Z,63.75
2022-12-28T19:53:18.104Z,63.74
2022-12-28T19:55:48.950Z,63.81
2022-12-28T19:58:20.844Z,63.92
2022-12-28T20:00:51.903Z,63.72
2022-12-28T20:03:23.467Z,63.68
2022-12-28T20:05:54.762Z,63.75
2022-12-28T20:08:25.791Z,63.74
2022-12-28T20:10:59.810Z,63.80
2022-12-28T20:13:30.626Z,63.78
2022-12-28T20:16:01.989Z,63.74
2022-12-28T20:18:33.657Z,63.91
2022-12-28T20:21:19.232Z,63.89
2022-12-28T20:23:51.940Z,63.84
2022-12-28T20:26:27.008Z,63.88
2022-12-28T20:29:00.459Z,63.91
2022-12-28T20:31:31.643Z,63.95
2022-12-28T20:34:02.802Z,63.97
2022-12-28T20:36:34.495Z,64.05
2022-12-28T20:39:05.731Z,63.91
2022-12-28T20:41:54.799Z,64.09
2022-12-28T20:44:28.265Z,64.03
2022-12-28T20:46:59.650Z,63.96
2022-12-28T20:49:31.850Z,63.92
2022-12-28T20:52:02.941Z,64.10
2022-12-28T20:54:34.016Z,64.03
2022-12-28T20:57:06.106Z,64.26
2022-12-28T20:59:37.116Z,64.31
2022-12-28T21:02:08.196Z,64.25
2022-12-28T21:04:39.087Z,64.34
2022-12-28T21:07:11.515Z,64.21
2022-12-28T21:09:42.310Z,64.23
2022-12-28T21:12:13.216Z,64.23
2022-12-28T21:14:44.291Z,64.25
2022-12-28T21:17:15.117Z,64.07
2022-12-28T21:19:46.013Z,64.18
2022-12-28T21:22:16.819Z,64.27
2022-12-28T21:24:47.652Z,64.25
2022-12-28T21:27:18.389Z,64.29
2022-12-28T21:29:49.321Z,64.24
2022-12-28T21:32:20.125Z,64.28
2022-12-28T21:34:51.097Z,64.27
2022-12-28T21:37:37.198Z,64.28
2022-12-28T21:40:11.821Z,64.35
2022-12-28T21:42:42.973Z,64.42
2022-12-28T21:45:14.629Z,64.37
2022-12-28T21:47:45.404Z,64.40
2022-12-28T21:50:16.618Z,64.29
2022-12-28T21:52:50.423Z,64.42
2022-12-28T21:55:38.840Z,64.23
2022-12-28T21:58:09.876Z,64.29
2022-12-28T22:00:58.284Z,64.33
2022-12-28T22:03:47.222Z,64.24
2022-12-28T22:06:17.960Z,64.25
2022-12-28T22:09:06.775Z,64.26
2022-12-28T22:11:54.999Z,64.21
2022-12-28T22:14:25.770Z,64.29
2022-12-28T22:16:56.745Z,64.19
2022-12-28T22:19:28.991Z,64.22
2022-12-28T22:22:00.042Z,64.18
2022-12-28T22:24:30.890Z,64.11
2022-12-28T22:27:01.591Z,64.14
2022-12-28T22:29:32.283Z,64.09
2022-12-28T22:32:03.089Z,64.04
2022-12-28T22:34:34.855Z,64.15
2022-12-28T22:37:05.539Z,64.07
2022-12-28T22:39:36.273Z,64.08
2022-12-28T22:42:08.491Z,64.12
2022-12-28T22:44:39.176Z,64.13
2022-12-28T22:47:10.231Z,64.14
2022-12-28T22:49:40.971Z,64.15
2022-12-28T22:52:11.788Z,64.15
2022-12-28T22:54:42.596Z,64.02
2022-12-28T22:57:13.411Z,64.11
2022-12-28T22:59:44.319Z,64.21
2022-12-28T23:02:15.251Z,64.16
2022-12-28T23:04:46.180Z,64.13
2022-12-28T23:07:17.076Z,64.04
2022-12-28T23:09:47.750Z,64.14
2022-12-28T23:12:18.454Z,64.18
2022-12-28T23:15:07.379Z,64.14
2022-12-28T23:17:37.995Z,64.12
2022-12-28T23:20:28.072Z,64.04
2022-12-28T23:23:16.492Z,63.99
2022-12-28T23:26:04.871Z,64.03
2022-12-28T23:28:37.081Z,63.99
2022-12-28T23:31:08.096Z,64.07
2022-12-28T23:33:38.983Z,63.99
2022-12-28T23:36:10.779Z,63.94
2022-12-28T23:38:41.816Z,63.84
2022-12-28T23:41:30.028Z,63.90
2022-12-28T23:44:00.853Z,63.91
2022-12-28T23:46:31.547Z,63.94
2022-12-28T23:49:02.342Z,63.83
2022-12-28T23:51:33.131Z,64.03
2022-12-28T23:54:03.809Z,64.04
2022-12-28T23:56:34.976Z,64.08
2022-12-28T23:59:06.206Z,64.04
